Aérodrome :
LOGIN :

S'inscrire | Disclaimer

   EN    FR    IT 

 










Légende :    VFR   VFR Marginal   IFR   IFR Intensif   IFR Très Intensif
Visi : 
Plafond : 
>= 8 km
>= 3000ft
5 à 8 km
1000 à 3000 ft
1500m à 5 km
500 à 1000 ft
800 à 1500m
200 à 500 ft
< 800m
< 200 ft
Symboles :   Orages  Brouillard  Fortes neiges  Fortes précipitations  Vent > 20 kt
SIGMETs :   Divers  Orages  Givrage  Turbulence  Onde Orograph.  Cendres Volcan.






- Altitude de l'aérodrome : 1910 ft
- Code IATA : RDZ


LFCR - Rodez

DERNIER METAR :
  • 281830Z AUTO 33005KT CAVOK 23/12 Q1022 NOSIG

METARs EXPIRÉS :
  • 281800Z AUTO 33005KT 300V010 CAVOK 25/11 Q1022 NOSIG
  • 281730Z AUTO 35005KT 320V020 CAVOK 25/11 Q1022 NOSIG
  • 281700Z AUTO 32007KT 290V350 CAVOK 25/11 Q1022 NOSIG
  • 281630Z AUTO 34007KT 310V020 CAVOK 26/11 Q1022 NOSIG
  • 281600Z AUTO 33007KT 290V010 CAVOK 26/08 Q1022 NOSIG

TAF TAF LFCR
Valide du 28 à 18h jusqu'au 29 à 18h UTC


281700Z 2818/2918 34007KT CAVOK
BECMG 2821/2823 06006KT



MET'MAP, la Météo Aéronautique d'un coup d'oeil ! - Copyright ORBIFLY Décembre 2007 - Disclaimer

ORBIFLY MET'MAP TEAM :

Programmation & Développement : Alexandra Zaïnal
Sur une idée originale de : Baudouin d'Aumeries
Assistance à la programmation : Marc-Olivier Méhu
Soutien technique & logistique : Manuel Goepfert

Contact : metmap@orbifly.com




SOURCES & CREDITS :

   NOAA